createdAt,value
2017-08-15T00:01:33.109Z,58.20
2017-08-15T00:03:59.364Z,58.10
2017-08-15T00:06:25.677Z,58.10
2017-08-15T00:08:51.957Z,57.40
2017-08-15T00:11:18.232Z,58.10
2017-08-15T00:13:45.094Z,57.40
2017-08-15T00:16:12.159Z,59.00
2017-08-15T00:18:39.154Z,58.40
2017-08-15T00:21:05.435Z,57.60
2017-08-15T00:23:31.709Z,58.30
2017-08-15T00:25:58.022Z,57.60
2017-08-15T00:28:25.853Z,58.70
2017-08-15T00:30:53.472Z,58.00
2017-08-15T00:33:20.560Z,58.60
2017-08-15T00:35:47.611Z,58.90
2017-08-15T00:38:14.556Z,58.80
2017-08-15T00:40:41.584Z,59.00
2017-08-15T00:43:08.087Z,59.10
2017-08-15T00:45:35.184Z,59.00
2017-08-15T00:48:01.991Z,59.00
2017-08-15T00:50:28.329Z,58.50
2017-08-15T00:52:55.951Z,59.00
2017-08-15T00:55:22.943Z,58.80
2017-08-15T00:57:49.225Z,59.10
2017-08-15T01:00:16.553Z,59.10
2017-08-15T01:02:42.860Z,59.10
2017-08-15T01:05:09.185Z,59.50
2017-08-15T01:07:36.555Z,59.50
2017-08-15T01:10:03.578Z,59.60
2017-08-15T01:12:30.574Z,59.60
2017-08-15T01:14:57.784Z,59.30
2017-08-15T01:17:24.101Z,59.50
2017-08-15T01:19:52.122Z,59.70
2017-08-15T01:22:18.464Z,60.70
2017-08-15T01:24:44.749Z,60.40
2017-08-15T01:27:11.043Z,59.40
2017-08-15T01:29:37.313Z,60.10
2017-08-15T01:32:03.592Z,60.30
2017-08-15T01:34:29.911Z,60.30
2017-08-15T01:36:56.787Z,60.00
2017-08-15T01:39:24.032Z,63.20
2017-08-15T01:41:50.597Z,60.20
2017-08-15T01:44:17.633Z,62.60
2017-08-15T01:46:43.969Z,62.20
2017-08-15T01:49:10.264Z,60.90
2017-08-15T01:51:37.023Z,61.20
2017-08-15T01:54:04.337Z,62.70
2017-08-15T01:56:30.711Z,61.80
2017-08-15T01:58:57.000Z,63.80
2017-08-15T02:01:23.261Z,63.10
2017-08-15T02:03:49.563Z,63.70
2017-08-15T02:06:15.863Z,64.10
2017-08-15T02:08:42.436Z,62.90
2017-08-15T02:11:09.359Z,62.60
2017-08-15T02:13:35.603Z,63.80
2017-08-15T02:16:02.179Z,64.50
2017-08-15T02:18:28.469Z,63.60
2017-08-15T02:20:54.753Z,65.70
2017-08-15T02:23:22.421Z,66.20
2017-08-15T02:25:49.436Z,65.30
2017-08-15T02:28:16.705Z,64.70
2017-08-15T02:30:42.981Z,64.80
2017-08-15T02:33:09.664Z,64.20
2017-08-15T02:35:35.980Z,65.20
2017-08-15T02:38:03.727Z,65.40
2017-08-15T02:40:30.036Z,65.10
2017-08-15T02:42:56.297Z,64.80
2017-08-15T02:45:22.668Z,64.20
2017-08-15T02:47:48.980Z,65.00
2017-08-15T02:50:15.862Z,65.20
2017-08-15T02:52:42.680Z,64.90
2017-08-15T02:55:10.322Z,64.70
2017-08-15T02:57:37.196Z,64.70
2017-08-15T03:00:03.815Z,64.10
2017-08-15T03:02:31.424Z,65.30
2017-08-15T03:04:58.416Z,65.60
2017-08-15T03:07:24.968Z,64.90
2017-08-15T03:09:52.750Z,64.90
2017-08-15T03:12:19.015Z,64.30
2017-08-15T03:14:46.334Z,64.60
2017-08-15T03:17:13.383Z,65.40
2017-08-15T03:19:40.260Z,64.60
2017-08-15T03:22:06.561Z,65.20
2017-08-15T03:24:33.136Z,65.20
2017-08-15T03:26:59.595Z,66.30
2017-08-15T03:29:26.841Z,66.80
2017-08-15T03:31:53.808Z,66.70
2017-08-15T03:34:20.096Z,66.70
2017-08-15T03:36:47.368Z,66.40
2017-08-15T03:39:13.640Z,65.60
2017-08-15T03:41:39.930Z,67.70
2017-08-15T03:44:06.956Z,68.40
2017-08-15T03:46:33.236Z,68.30
2017-08-15T03:48:59.523Z,67.20
2017-08-15T03:51:25.798Z,66.60
2017-08-15T03:53:52.740Z,65.90
2017-08-15T03:56:19.063Z,66.40
2017-08-15T03:58:45.341Z,66.80
2017-08-15T04:01:12.592Z,66.30
2017-08-15T04:03:38.881Z,66.30
2017-08-15T04:06:06.781Z,67.60
2017-08-15T04:08:33.139Z,66.90
2017-08-15T04:10:59.396Z,67.30
2017-08-15T04:13:25.671Z,68.40
2017-08-15T04:15:52.498Z,67.70
2017-08-15T04:18:19.788Z,66.70
2017-08-15T04:20:46.825Z,67.00
2017-08-15T04:23:14.422Z,66.70
2017-08-15T04:25:41.175Z,67.30
2017-08-15T04:28:08.591Z,68.10
2017-08-15T04:30:36.324Z,67.70
2017-08-15T04:33:02.567Z,68.50
2017-08-15T04:35:29.923Z,69.10
2017-08-15T04:37:56.473Z,67.90
2017-08-15T04:40:22.753Z,67.70
2017-08-15T04:42:50.108Z,69.50
2017-08-15T04:45:16.981Z,69.70
2017-08-15T04:47:44.127Z,69.60
2017-08-15T04:50:10.990Z,69.70
2017-08-15T04:52:37.298Z,69.90
2017-08-15T04:55:03.928Z,69.90
2017-08-15T04:57:30.530Z,70.00
2017-08-15T04:59:57.161Z,70.00
2017-08-15T05:02:24.001Z,69.70
2017-08-15T05:04:51.269Z,69.60
2017-08-15T05:07:18.612Z,69.60
2017-08-15T05:09:45.887Z,68.60
2017-08-15T05:12:13.121Z,69.10
2017-08-15T05:14:39.928Z,68.60
2017-08-15T05:17:06.207Z,68.30
2017-08-15T05:19:33.973Z,67.20
2017-08-15T05:22:00.236Z,65.90
2017-08-15T05:24:26.514Z,67.30
2017-08-15T05:26:53.324Z,67.00
2017-08-15T05:29:19.618Z,66.20
2017-08-15T05:31:45.919Z,65.50
2017-08-15T05:34:12.180Z,62.40
2017-08-15T05:36:38.641Z,62.30
2017-08-15T05:39:05.939Z,64.70
2017-08-15T05:41:32.350Z,62.10
2017-08-15T05:44:01.401Z,59.70
2017-08-15T05:46:28.454Z,58.30
2017-08-15T05:48:55.408Z,58.40
2017-08-15T05:51:21.706Z,58.90
2017-08-15T05:53:48.017Z,58.00
2017-08-15T05:56:15.718Z,58.50
2017-08-15T05:58:43.508Z,58.20
2017-08-15T06:01:11.520Z,58.90
2017-08-15T06:03:38.078Z,58.30
2017-08-15T06:06:04.306Z,58.20
2017-08-15T06:08:30.916Z,58.40
2017-08-15T06:10:57.847Z,58.10
2017-08-15T06:13:24.120Z,58.00
2017-08-15T06:15:51.403Z,58.70
2017-08-15T06:18:17.664Z,56.40
2017-08-15T06:20:43.968Z,56.50
2017-08-15T06:23:10.992Z,55.70
2017-08-15T06:25:37.265Z,55.60
2017-08-15T06:28:04.516Z,55.90
2017-08-15T06:30:31.774Z,57.10
2017-08-15T06:32:58.615Z,56.20
2017-08-15T06:35:25.224Z,56.20
2017-08-15T06:37:52.273Z,56.50
2017-08-15T06:40:19.756Z,55.80
2017-08-15T06:42:47.473Z,55.30
2017-08-15T06:45:13.882Z,55.30
2017-08-15T06:47:40.140Z,54.30
2017-08-15T06:50:07.024Z,55.00
2017-08-15T06:52:33.305Z,53.30
2017-08-15T06:55:00.611Z,53.60
2017-08-15T06:57:27.859Z,54.30
2017-08-15T06:59:55.027Z,53.40
2017-08-15T07:02:21.307Z,54.20
2017-08-15T07:04:48.325Z,52.50
2017-08-15T07:07:14.582Z,52.90
2017-08-15T07:09:42.241Z,53.30
2017-08-15T07:12:09.276Z,54.40
2017-08-15T07:14:35.579Z,53.80
2017-08-15T07:17:01.883Z,54.40
2017-08-15T07:19:28.474Z,54.00
2017-08-15T07:21:54.841Z,54.30
2017-08-15T07:24:21.149Z,54.00
2017-08-15T07:26:47.471Z,54.50
2017-08-15T07:29:14.507Z,52.70
2017-08-15T07:31:41.799Z,53.10
2017-08-15T07:34:09.132Z,53.50
2017-08-15T07:36:35.437Z,52.70
2017-08-15T07:39:02.091Z,52.20
2017-08-15T07:41:29.022Z,52.70
2017-08-15T07:43:55.822Z,53.70
2017-08-15T07:46:22.837Z,52.50
2017-08-15T07:48:49.896Z,51.60
2017-08-15T07:51:17.186Z,51.60
2017-08-15T07:53:48.779Z,50.30
2017-08-15T07:56:15.149Z,49.20
2017-08-15T07:58:41.505Z,47.80
2017-08-15T08:01:07.831Z,49.20
2017-08-15T08:03:34.816Z,48.40
2017-08-15T08:06:02.476Z,46.70
2017-08-15T08:08:28.939Z,46.70
2017-08-15T08:10:55.988Z,46.60
2017-08-15T08:13:22.331Z,46.00
2017-08-15T08:15:49.195Z,44.50
2017-08-15T08:18:15.498Z,44.00
2017-08-15T08:20:43.103Z,45.80
2017-08-15T08:23:10.552Z,43.50
2017-08-15T08:25:38.314Z,44.20
2017-08-15T08:28:04.611Z,44.20
2017-08-15T08:30:30.880Z,44.70
2017-08-15T08:32:57.187Z,44.10
2017-08-15T08:35:23.445Z,44.40
2017-08-15T08:37:49.750Z,44.40
2017-08-15T08:40:16.059Z,45.30
2017-08-15T08:42:42.341Z,43.90
2017-08-15T08:45:09.737Z,44.80
2017-08-15T08:47:36.012Z,44.30
2017-08-15T08:50:02.849Z,43.90
2017-08-15T08:52:29.201Z,43.20
2017-08-15T08:54:55.491Z,45.10
2017-08-15T09:32:02.169Z,44.70
2017-08-15T09:34:29.513Z,44.30
2017-08-15T09:36:56.502Z,45.20
2017-08-15T09:39:23.218Z,44.70
2017-08-15T09:41:49.739Z,45.00
2017-08-15T09:44:17.172Z,45.60
2017-08-15T09:46:44.329Z,46.00
2017-08-15T09:49:10.624Z,46.00
2017-08-15T09:51:37.857Z,45.30
2017-08-15T09:54:04.490Z,45.40
2017-08-15T09:56:30.839Z,44.80
2017-08-15T09:59:03.525Z,44.10
2017-08-15T10:01:30.621Z,43.10
2017-08-15T10:03:57.013Z,43.00
2017-08-15T10:06:23.814Z,42.80
2017-08-15T10:08:50.166Z,43.20
2017-08-15T10:11:17.474Z,43.90
2017-08-15T10:13:44.051Z,43.80
2017-08-15T10:16:11.062Z,43.80
2017-08-15T10:18:37.334Z,44.10
2017-08-15T10:21:04.460Z,44.60
2017-08-15T10:23:31.237Z,44.50
2017-08-15T10:25:58.492Z,43.70
2017-08-15T10:28:24.870Z,43.40
2017-08-15T10:30:51.822Z,43.50
2017-08-15T10:33:18.104Z,43.30
2017-08-15T10:35:45.653Z,44.30
2017-08-15T10:38:12.347Z,44.30
2017-08-15T10:40:38.733Z,44.70
2017-08-15T10:43:06.219Z,45.10
2017-08-15T10:45:33.456Z,45.60
2017-08-15T10:48:00.864Z,45.00
2017-08-15T10:50:27.214Z,44.90
2017-08-15T10:52:54.025Z,44.20
2017-08-15T10:55:20.483Z,43.70
2017-08-15T10:57:47.413Z,43.70
2017-08-15T11:00:13.791Z,44.30
2017-08-15T11:02:42.176Z,44.30
2017-08-15T11:05:08.485Z,44.30
2017-08-15T11:07:36.071Z,43.10
2017-08-15T11:10:03.379Z,43.10
2017-08-15T11:12:30.465Z,43.40
2017-08-15T11:14:57.383Z,43.80
2017-08-15T11:17:25.410Z,43.80
2017-08-15T11:19:51.874Z,43.80
2017-08-15T11:22:18.939Z,44.10
2017-08-15T11:24:46.438Z,44.10
2017-08-15T11:27:12.859Z,43.50
2017-08-15T11:29:39.141Z,43.20
2017-08-15T11:32:05.729Z,42.00
2017-08-15T11:34:31.991Z,42.50
2017-08-15T11:36:58.972Z,42.50
2017-08-15T11:39:26.029Z,42.50
2017-08-15T11:41:53.010Z,42.30
2017-08-15T11:44:19.350Z,42.30
2017-08-15T11:46:46.192Z,42.30
2017-08-15T11:49:12.451Z,41.70
2017-08-15T11:51:38.880Z,42.50
2017-08-15T11:54:06.566Z,41.90
2017-08-15T11:56:33.479Z,42.40
2017-08-15T11:59:00.047Z,42.60
2017-08-15T12:01:28.206Z,42.20
2017-08-15T12:03:55.768Z,42.10
2017-08-15T12:06:22.876Z,42.10
2017-08-15T12:08:49.315Z,42.00
2017-08-15T12:11:16.196Z,41.60
2017-08-15T12:13:43.602Z,40.80
2017-08-15T12:16:10.999Z,40.90
2017-08-15T12:18:37.294Z,42.00
2017-08-15T12:21:04.328Z,40.50
2017-08-15T12:23:31.438Z,40.00
2017-08-15T12:25:58.570Z,41.00
2017-08-15T12:28:25.628Z,40.90
2017-08-15T12:30:52.687Z,41.60
2017-08-15T12:33:19.720Z,38.70
2017-08-15T12:35:47.064Z,38.70
2017-08-15T12:38:14.787Z,40.60
2017-08-15T12:40:43.017Z,40.60
2017-08-15T12:43:10.093Z,39.10
2017-08-15T12:45:36.423Z,39.10
2017-08-15T12:48:02.913Z,39.20
2017-08-15T12:50:29.256Z,39.60
2017-08-15T12:52:56.280Z,38.50
2017-08-15T12:55:23.593Z,38.30
2017-08-15T12:57:49.938Z,38.20
2017-08-15T13:00:16.256Z,37.60
2017-08-15T13:02:43.011Z,38.40
2017-08-15T13:05:10.125Z,37.60
2017-08-15T13:07:36.408Z,37.50
2017-08-15T13:10:03.288Z,38.00
2017-08-15T13:12:31.841Z,36.30
2017-08-15T13:14:59.078Z,36.40
2017-08-15T13:17:25.338Z,36.20
2017-08-15T13:19:52.867Z,35.60
2017-08-15T13:22:19.267Z,35.10
2017-08-15T13:24:46.561Z,35.70
2017-08-15T13:27:12.959Z,35.80
2017-08-15T13:29:39.317Z,35.50
2017-08-15T13:32:06.079Z,35.60
2017-08-15T13:34:33.701Z,34.90
2017-08-15T13:37:00.995Z,34.80
2017-08-15T13:39:29.110Z,35.40
2017-08-15T13:41:56.937Z,35.30
2017-08-15T13:44:24.022Z,35.50
2017-08-15T13:46:50.367Z,35.50
2017-08-15T13:49:16.684Z,35.80
2017-08-15T13:51:43.602Z,35.70
2017-08-15T13:54:11.343Z,35.80
2017-08-15T13:56:37.657Z,35.80
2017-08-15T13:59:04.553Z,36.00
2017-08-15T14:01:30.860Z,36.80
2017-08-15T14:03:57.518Z,37.10
2017-08-15T14:06:24.353Z,35.50
2017-08-15T14:08:52.425Z,35.10
2017-08-15T14:11:18.710Z,35.10
2017-08-15T14:13:44.998Z,35.00
2017-08-15T14:16:11.305Z,34.80
2017-08-15T14:18:37.839Z,35.30
2017-08-15T14:21:05.560Z,35.60
2017-08-15T14:23:32.580Z,35.70
2017-08-15T14:25:59.231Z,35.40
2017-08-15T14:28:25.585Z,35.60
2017-08-15T14:30:51.907Z,35.90
2017-08-15T14:33:19.276Z,36.60
2017-08-15T14:35:46.261Z,35.80
2017-08-15T14:38:13.513Z,37.80
2017-08-15T14:40:40.481Z,36.60
2017-08-15T14:43:07.798Z,37.10
2017-08-15T14:45:35.600Z,36.50
2017-08-15T14:48:02.884Z,36.50
2017-08-15T14:50:29.175Z,35.70
2017-08-15T14:52:56.470Z,34.40
2017-08-15T14:55:23.338Z,34.70
2017-08-15T14:57:50.306Z,34.80
2017-08-15T15:00:16.847Z,36.40
2017-08-15T15:02:43.221Z,36.90
2017-08-15T15:05:09.565Z,36.70
2017-08-15T15:07:37.378Z,36.30
2017-08-15T15:10:03.980Z,37.90
2017-08-15T15:12:30.265Z,36.60
2017-08-15T15:14:56.569Z,36.40
2017-08-15T15:17:31.620Z,36.70
2017-08-15T15:19:57.896Z,36.90
2017-08-15T15:22:25.225Z,37.50
2017-08-15T15:24:51.565Z,37.40
2017-08-15T15:27:17.888Z,37.50
2017-08-15T15:29:44.230Z,38.20
2017-08-15T15:32:12.185Z,39.70
2017-08-15T15:34:40.176Z,39.30
2017-08-15T15:37:07.195Z,41.00
2017-08-15T15:39:33.485Z,41.00
2017-08-15T15:41:59.800Z,41.60
2017-08-15T15:44:27.173Z,41.40
2017-08-15T15:46:53.438Z,41.40
2017-08-15T15:49:19.749Z,41.60
2017-08-15T15:51:46.105Z,41.30
2017-08-15T15:54:13.073Z,41.00
2017-08-15T15:56:39.405Z,41.70
2017-08-15T15:59:08.055Z,41.80
2017-08-15T16:01:34.690Z,41.70
2017-08-15T16:04:01.589Z,42.30
2017-08-15T16:06:29.476Z,43.10
2017-08-15T16:08:56.592Z,42.70
2017-08-15T16:11:23.669Z,41.70
2017-08-15T16:13:50.153Z,41.70
2017-08-15T16:16:16.895Z,42.60
2017-08-15T16:18:43.212Z,43.00
2017-08-15T16:21:09.502Z,42.00
2017-08-15T16:23:36.071Z,43.40
2017-08-15T16:26:03.005Z,43.30
2017-08-15T16:28:36.578Z,43.40
2017-08-15T16:31:03.551Z,45.00
2017-08-15T16:33:30.800Z,44.00
2017-08-15T16:35:57.571Z,43.80
2017-08-15T16:38:23.892Z,45.60
2017-08-15T16:40:50.506Z,45.00
2017-08-15T16:43:16.876Z,45.00
2017-08-15T16:45:43.838Z,44.80
2017-08-15T16:48:12.301Z,46.10
2017-08-15T16:50:39.347Z,47.10
2017-08-15T16:53:05.689Z,47.10
2017-08-15T16:55:32.738Z,48.20
2017-08-15T16:57:59.965Z,49.10
2017-08-15T17:00:26.772Z,49.10
2017-08-15T17:02:54.113Z,50.20
2017-08-15T17:05:21.108Z,50.30
2017-08-15T17:07:48.298Z,50.90
2017-08-15T17:10:14.675Z,51.20
2017-08-15T17:12:41.635Z,51.90
2017-08-15T17:15:08.432Z,53.00
2017-08-15T17:17:35.007Z,53.40
2017-08-15T17:20:01.338Z,54.10
2017-08-15T17:22:28.586Z,54.30
2017-08-15T17:24:55.094Z,54.00
2017-08-15T17:27:22.188Z,54.60
2017-08-15T17:29:48.817Z,54.60
2017-08-15T17:32:15.097Z,55.00
2017-08-15T17:34:41.731Z,55.80
2017-08-15T17:37:07.994Z,56.30
2017-08-15T17:39:34.296Z,55.70
2017-08-15T17:42:00.615Z,56.50
2017-08-15T17:44:27.390Z,56.60
2017-08-15T17:46:53.995Z,55.80
2017-08-15T17:49:20.262Z,56.50
2017-08-15T17:51:46.579Z,56.70
2017-08-15T17:54:13.442Z,56.70
2017-08-15T17:56:40.034Z,56.80
2017-08-15T17:59:07.270Z,56.70
2017-08-15T18:01:33.573Z,56.90
2017-08-15T18:03:59.906Z,56.80
2017-08-15T18:06:26.151Z,57.10
2017-08-15T18:08:53.287Z,56.40
2017-08-15T18:11:20.585Z,56.30
2017-08-15T18:13:47.220Z,56.80
2017-08-15T18:16:14.119Z,57.30
2017-08-15T18:18:41.153Z,57.90
2017-08-15T18:21:08.229Z,57.80
2017-08-15T18:23:35.318Z,57.10
2017-08-15T18:26:01.619Z,57.10
2017-08-15T18:28:28.883Z,57.70
2017-08-15T18:30:56.226Z,57.70
2017-08-15T18:33:23.217Z,57.60
2017-08-15T18:35:49.485Z,58.30
2017-08-15T18:38:16.841Z,58.40
2017-08-15T18:40:43.332Z,58.40
2017-08-15T18:43:10.850Z,57.10
2017-08-15T18:45:39.108Z,57.20
2017-08-15T18:48:06.133Z,56.80
2017-08-15T18:50:32.927Z,56.80
2017-08-15T18:53:00.043Z,57.20
2017-08-15T18:55:27.328Z,56.80
2017-08-15T18:57:54.116Z,57.90
2017-08-15T19:00:20.457Z,58.20
2017-08-15T19:02:46.912Z,58.20
2017-08-15T19:05:13.317Z,59.60
2017-08-15T19:07:39.689Z,60.50
2017-08-15T19:10:06.090Z,59.80
2017-08-15T19:12:33.407Z,58.20
2017-08-15T19:15:00.192Z,58.20
2017-08-15T19:17:27.290Z,57.80
2017-08-15T19:19:54.777Z,58.90
2017-08-15T19:22:21.219Z,58.80
2017-08-15T19:24:48.229Z,57.50
2017-08-15T19:27:14.596Z,56.90
2017-08-15T19:29:41.972Z,56.20
2017-08-15T19:32:08.247Z,56.20
2017-08-15T19:34:34.755Z,55.90
2017-08-15T19:37:01.604Z,53.90
2017-08-15T19:39:28.850Z,51.80
2017-08-15T19:41:56.064Z,50.70
2017-08-15T19:44:22.402Z,50.50
2017-08-15T19:46:49.722Z,49.30
2017-08-15T19:49:16.045Z,49.80
2017-08-15T19:51:42.359Z,51.10
2017-08-15T19:54:09.387Z,52.10
2017-08-15T19:56:35.654Z,52.80
2017-08-15T19:59:02.011Z,55.20
2017-08-15T20:01:28.378Z,55.10
2017-08-15T20:03:54.856Z,56.30
2017-08-15T20:06:21.858Z,57.80
2017-08-15T20:08:48.543Z,60.90
2017-08-15T20:11:15.458Z,62.10
2017-08-15T20:13:42.012Z,62.10
2017-08-15T20:16:08.307Z,65.00
2017-08-15T20:18:35.318Z,66.40
2017-08-15T20:21:02.165Z,67.30
2017-08-15T20:23:28.451Z,68.20
2017-08-15T20:25:55.282Z,69.00
2017-08-15T20:28:21.585Z,69.20
2017-08-15T20:30:48.863Z,70.90
2017-08-15T20:33:15.951Z,70.90
2017-08-15T20:35:46.271Z,70.00
2017-08-15T20:38:13.495Z,69.40
2017-08-15T20:40:40.377Z,70.70
2017-08-15T20:43:06.686Z,69.90
2017-08-15T20:45:33.892Z,71.00
2017-08-15T20:48:00.150Z,69.40
2017-08-15T20:50:27.028Z,68.40
2017-08-15T20:52:53.439Z,68.10
2017-08-15T20:55:19.752Z,68.50
2017-08-15T20:57:46.164Z,69.50
2017-08-15T21:00:12.432Z,70.80
2017-08-15T21:02:39.322Z,70.40
2017-08-15T21:05:06.582Z,72.10
2017-08-15T21:07:32.845Z,71.60
2017-08-15T21:09:59.162Z,72.00
2017-08-15T21:14:59.863Z,70.20
2017-08-15T21:17:26.269Z,72.50
2017-08-15T21:19:53.169Z,69.40
2017-08-15T21:22:19.580Z,68.80
2017-08-15T21:24:45.941Z,68.40
2017-08-15T21:27:12.815Z,68.90
2017-08-15T21:29:39.090Z,69.10
2017-08-15T21:32:06.365Z,68.90
2017-08-15T21:34:34.384Z,68.40
2017-08-15T21:37:02.135Z,68.40
2017-08-15T21:39:28.747Z,68.20
2017-08-15T21:41:55.014Z,69.80
2017-08-15T21:44:21.880Z,70.10
2017-08-15T21:46:49.163Z,70.30
2017-08-15T21:49:15.737Z,69.30
2017-08-15T21:51:42.302Z,69.40
2017-08-15T21:54:10.730Z,71.40
2017-08-15T21:56:37.036Z,71.40
2017-08-15T21:59:03.633Z,70.00
2017-08-15T22:01:36.970Z,70.10
2017-08-15T22:04:04.168Z,70.00
2017-08-15T22:06:32.196Z,71.90
2017-08-15T22:08:58.462Z,71.80
2017-08-15T22:11:25.452Z,73.80
2017-08-15T22:13:52.265Z,73.50
2017-08-15T22:16:18.555Z,72.80
2017-08-15T22:18:44.855Z,74.90
2017-08-15T22:21:11.725Z,75.40
2017-08-15T22:23:38.322Z,76.50
2017-08-15T22:26:05.092Z,76.60
2017-08-15T22:41:32.518Z,77.00
2017-08-15T22:43:58.789Z,76.40
2017-08-15T22:46:25.040Z,76.00
2017-08-15T22:48:51.319Z,78.40
2017-08-15T22:51:17.646Z,78.00
2017-08-15T22:53:43.940Z,78.60
2017-08-15T22:56:10.215Z,79.10
2017-08-15T22:58:37.084Z,79.80
2017-08-15T23:01:03.582Z,80.10
2017-08-15T23:03:29.850Z,79.10
2017-08-15T23:05:56.144Z,78.70
2017-08-15T23:08:22.425Z,78.10
2017-08-15T23:10:50.071Z,76.20
2017-08-15T23:13:16.787Z,76.10
2017-08-15T23:15:44.106Z,76.00
2017-08-15T23:18:10.924Z,76.20
2017-08-15T23:20:38.925Z,75.00
2017-08-15T23:23:06.540Z,75.00
2017-08-15T23:25:34.527Z,76.80
2017-08-15T23:28:01.604Z,77.20
2017-08-15T23:30:27.927Z,77.20
2017-08-15T23:32:55.167Z,77.60
2017-08-15T23:35:21.533Z,78.30
2017-08-15T23:37:48.312Z,77.40
2017-08-15T23:40:15.655Z,76.80
2017-08-15T23:42:42.573Z,76.70
2017-08-15T23:45:09.168Z,76.00
2017-08-15T23:47:36.082Z,75.80
2017-08-15T23:50:02.798Z,76.30
2017-08-15T23:52:29.061Z,75.60
2017-08-15T23:54:55.343Z,75.30
2017-08-15T23:57:22.153Z,76.00
2017-08-15T23:59:48.994Z,77.90
